sensor_id;sensor_type;location;lat;lon;timestamp;pressure;altitude;pressure_sealevel;temperature;humidity
12879;BME280;20617;49.476;10.986;2023-08-20T00:01:00;98562.78;;;27.03;100.00
12879;BME280;20617;49.476;10.986;2023-08-20T00:03:11;98558.09;;;27.05;100.00
12879;BME280;20617;49.476;10.986;2023-08-20T00:05:17;98558.09;;;27.05;100.00
12879;BME280;20617;49.476;10.986;2023-08-20T00:07:23;98555.59;;;27.03;100.00
12879;BME280;20617;49.476;10.986;2023-08-20T00:09:25;98556.44;;;27.04;100.00
12879;BME280;20617;49.476;10.986;2023-08-20T00:11:32;98557.59;;;27.01;100.00
12879;BME280;20617;49.476;10.986;2023-08-20T00:13:37;98547.09;;;27.00;100.00
12879;BME280;20617;49.476;10.986;2023-08-20T00:15:46;98551.41;;;27.01;100.00
12879;BME280;20617;49.476;10.986;2023-08-20T00:17:52;98553.59;;;26.97;100.00
12879;BME280;20617;49.476;10.986;2023-08-20T00:19:58;98553.25;;;27.00;100.00
12879;BME280;20617;49.476;10.986;2023-08-20T00:22:04;98556.25;;;26.97;100.00
12879;BME280;20617;49.476;10.986;2023-08-20T00:24:12;98548.75;;;27.01;100.00
12879;BME280;20617;49.476;10.986;2023-08-20T00:26:20;98562.25;;;26.99;100.00
12879;BME280;20617;49.476;10.986;2023-08-20T00:28:25;98560.75;;;26.97;100.00
12879;BME280;20617;49.476;10.986;2023-08-20T00:30:30;98558.25;;;26.95;100.00
12879;BME280;20617;49.476;10.986;2023-08-20T00:32:39;98556.72;;;26.93;100.00
12879;BME280;20617;49.476;10.986;2023-08-20T00:34:44;98558.06;;;26.89;100.00
12879;BME280;20617;49.476;10.986;2023-08-20T00:36:49;98558.16;;;26.79;100.00
12879;BME280;20617;49.476;10.986;2023-08-20T00:38:54;98559.34;;;26.76;100.00
12879;BME280;20617;49.476;10.986;2023-08-20T00:40:59;98564.84;;;26.75;100.00
12879;BME280;20617;49.476;10.986;2023-08-20T00:43:04;98563.97;;;26.66;100.00
12879;BME280;20617;49.476;10.986;2023-08-20T00:45:12;98562.44;;;26.63;100.00
12879;BME280;20617;49.476;10.986;2023-08-20T00:47:14;98562.25;;;26.57;100.00
12879;BME280;20617;49.476;10.986;2023-08-20T00:49:22;98569.44;;;26.56;100.00
12879;BME280;20617;49.476;10.986;2023-08-20T00:51:30;98567.06;;;26.53;100.00
12879;BME280;20617;49.476;10.986;2023-08-20T00:53:36;98567.22;;;26.52;100.00
12879;BME280;20617;49.476;10.986;2023-08-20T00:55:42;98562.88;;;26.51;100.00
12879;BME280;20617;49.476;10.986;2023-08-20T00:57:50;98569.88;;;26.52;100.00
12879;BME280;20617;49.476;10.986;2023-08-20T00:59:53;98571.88;;;26.50;100.00
12879;BME280;20617;49.476;10.986;2023-08-20T01:02:00;98580.16;;;26.47;100.00
12879;BME280;20617;49.476;10.986;2023-08-20T01:04:06;98572.78;;;26.40;100.00
12879;BME280;20617;49.476;10.986;2023-08-20T01:06:22;98575.97;;;26.44;100.00
12879;BME280;20617;49.476;10.986;2023-08-20T01:08:35;98586.44;;;26.37;100.00
12879;BME280;20617;49.476;10.986;2023-08-20T01:10:47;98595.84;;;26.24;100.00
12879;BME280;20617;49.476;10.986;2023-08-20T01:12:54;98601.31;;;26.14;100.00
12879;BME280;20617;49.476;10.986;2023-08-20T01:15:00;98605.22;;;26.02;100.00
12879;BME280;20617;49.476;10.986;2023-08-20T01:17:07;98603.31;;;25.94;100.00
12879;BME280;20617;49.476;10.986;2023-08-20T01:19:16;98605.97;;;25.94;100.00
12879;BME280;20617;49.476;10.986;2023-08-20T01:21:32;98605.84;;;25.95;100.00
12879;BME280;20617;49.476;10.986;2023-08-20T01:24:04;98604.00;;;25.96;100.00
12879;BME280;20617;49.476;10.986;2023-08-20T01:26:21;98611.16;;;25.95;100.00
12879;BME280;20617;49.476;10.986;2023-08-20T01:28:33;98608.50;;;25.95;100.00
12879;BME280;20617;49.476;10.986;2023-08-20T01:30:37;98605.44;;;25.90;100.00
12879;BME280;20617;49.476;10.986;2023-08-20T01:32:43;98612.75;;;25.88;100.00
12879;BME280;20617;49.476;10.986;2023-08-20T01:34:50;98613.75;;;25.87;100.00
12879;BME280;20617;49.476;10.986;2023-08-20T01:36:57;98616.88;;;25.83;100.00
12879;BME280;20617;49.476;10.986;2023-08-20T01:39:02;98621.50;;;25.81;100.00
12879;BME280;20617;49.476;10.986;2023-08-20T01:41:09;98622.66;;;25.78;100.00
12879;BME280;20617;49.476;10.986;2023-08-20T01:43:14;98626.16;;;25.79;100.00
12879;BME280;20617;49.476;10.986;2023-08-20T01:45:23;98628.66;;;25.80;100.00
12879;BME280;20617;49.476;10.986;2023-08-20T01:47:28;98632.31;;;25.79;100.00
12879;BME280;20617;49.476;10.986;2023-08-20T01:49:35;98627.28;;;25.76;100.00
12879;BME280;20617;49.476;10.986;2023-08-20T01:51:42;98628.28;;;25.75;100.00
12879;BME280;20617;49.476;10.986;2023-08-20T01:53:47;98626.75;;;25.72;100.00
12879;BME280;20617;49.476;10.986;2023-08-20T01:55:52;98626.91;;;25.71;100.00
12879;BME280;20617;49.476;10.986;2023-08-20T01:58:05;98626.75;;;25.72;100.00
12879;BME280;20617;49.476;10.986;2023-08-20T02:00:12;98625.63;;;25.75;100.00
12879;BME280;20617;49.476;10.986;2023-08-20T02:02:20;98628.94;;;25.77;100.00
12879;BME280;20617;49.476;10.986;2023-08-20T02:04:26;98626.97;;;25.79;100.00
12879;BME280;20617;49.476;10.986;2023-08-20T02:06:30;98629.13;;;25.75;100.00
12879;BME280;20617;49.476;10.986;2023-08-20T02:08:39;98625.31;;;25.78;100.00
12879;BME280;20617;49.476;10.986;2023-08-20T02:10:44;98618.16;;;25.79;100.00
12879;BME280;20617;49.476;10.986;2023-08-20T02:12:53;98622.94;;;25.75;100.00
12879;BME280;20617;49.476;10.986;2023-08-20T02:14:58;98623.41;;;25.70;100.00
12879;BME280;20617;49.476;10.986;2023-08-20T02:17:04;98631.69;;;25.67;100.00
12879;BME280;20617;49.476;10.986;2023-08-20T02:19:16;98633.66;;;25.65;100.00
12879;BME280;20617;49.476;10.986;2023-08-20T02:21:21;98631.78;;;25.58;100.00
12879;BME280;20617;49.476;10.986;2023-08-20T02:23:26;98648.22;;;25.53;100.00
12879;BME280;20617;49.476;10.986;2023-08-20T02:25:32;98649.50;;;25.49;100.00
12879;BME280;20617;49.476;10.986;2023-08-20T02:27:40;98648.38;;;25.51;100.00
12879;BME280;20617;49.476;10.986;2023-08-20T02:29:46;98642.75;;;25.55;100.00
12879;BME280;20617;49.476;10.986;2023-08-20T02:31:51;98638.94;;;25.57;100.00
12879;BME280;20617;49.476;10.986;2023-08-20T02:33:57;98640.91;;;25.55;100.00
12879;BME280;20617;49.476;10.986;2023-08-20T02:36:05;98649.34;;;25.50;100.00
12879;BME280;20617;49.476;10.986;2023-08-20T02:38:10;98644.31;;;25.47;100.00
12879;BME280;20617;49.476;10.986;2023-08-20T02:40:16;98653.06;;;25.40;100.00
12879;BME280;20617;49.476;10.986;2023-08-20T02:42:21;98654.34;;;25.36;100.00
12879;BME280;20617;49.476;10.986;2023-08-20T02:44:28;98658.13;;;25.33;100.00
12879;BME280;20617;49.476;10.986;2023-08-20T02:46:33;98651.44;;;25.29;100.00
12879;BME280;20617;49.476;10.986;2023-08-20T02:48:40;98645.28;;;25.28;100.00
12879;BME280;20617;49.476;10.986;2023-08-20T02:50:45;98640.78;;;25.29;100.00
12879;BME280;20617;49.476;10.986;2023-08-20T02:52:54;98641.91;;;25.26;100.00
12879;BME280;20617;49.476;10.986;2023-08-20T02:54:59;98647.53;;;25.23;100.00
12879;BME280;20617;49.476;10.986;2023-08-20T02:57:09;98645.88;;;25.22;100.00
12879;BME280;20617;49.476;10.986;2023-08-20T02:59:14;98643.22;;;25.22;100.00
12879;BME280;20617;49.476;10.986;2023-08-20T03:01:20;98653.69;;;25.24;100.00
12879;BME280;20617;49.476;10.986;2023-08-20T03:03:26;98648.38;;;25.24;100.00
12879;BME280;20617;49.476;10.986;2023-08-20T03:05:32;98646.41;;;25.26;100.00
12879;BME280;20617;49.476;10.986;2023-08-20T03:07:37;98649.06;;;25.26;100.00
12879;BME280;20617;49.476;10.986;2023-08-20T03:09:44;98646.72;;;25.23;100.00
12879;BME280;20617;49.476;10.986;2023-08-20T03:11:50;98646.72;;;25.23;100.00
12879;BME280;20617;49.476;10.986;2023-08-20T03:13:55;98648.53;;;25.22;100.00
12879;BME280;20617;49.476;10.986;2023-08-20T03:16:00;98650.50;;;25.20;100.00
12879;BME280;20617;49.476;10.986;2023-08-20T03:18:08;98646.47;;;25.16;100.00
12879;BME280;20617;49.476;10.986;2023-08-20T03:20:13;98647.31;;;25.17;100.00
12879;BME280;20617;49.476;10.986;2023-08-20T03:22:19;98650.25;;;25.14;100.00
12879;BME280;20617;49.476;10.986;2023-08-20T03:24:24;98654.31;;;25.08;100.00
12879;BME280;20617;49.476;10.986;2023-08-20T03:26:32;98665.84;;;24.99;100.00
12879;BME280;20617;49.476;10.986;2023-08-20T03:28:41;98661.94;;;24.93;100.00
12879;BME280;20617;49.476;10.986;2023-08-20T03:30:47;98664.91;;;24.90;100.00
12879;BME280;20617;49.476;10.986;2023-08-20T03:32:55;98666.03;;;24.88;100.00
12879;BME280;20617;49.476;10.986;2023-08-20T03:35:00;98668.81;;;24.86;100.00
12879;BME280;20617;49.476;10.986;2023-08-20T03:37:08;98667.00;;;24.87;100.00
12879;BME280;20617;49.476;10.986;2023-08-20T03:39:12;98663.66;;;24.84;100.00
12879;BME280;20617;49.476;10.986;2023-08-20T03:41:17;98656.34;;;24.87;100.00
12879;BME280;20617;49.476;10.986;2023-08-20T03:43:25;98664.78;;;24.82;100.00
12879;BME280;20617;49.476;10.986;2023-08-20T03:45:30;98662.97;;;24.82;100.00
12879;BME280;20617;49.476;10.986;2023-08-20T03:47:36;98663.38;;;24.78;100.00
12879;BME280;20617;49.476;10.986;2023-08-20T03:49:39;98661.72;;;24.77;100.00
12879;BME280;20617;49.476;10.986;2023-08-20T03:51:44;98658.06;;;24.78;100.00
12879;BME280;20617;49.476;10.986;2023-08-20T03:53:49;98673.06;;;24.79;100.00
12879;BME280;20617;49.476;10.986;2023-08-20T03:55:54;98670.53;;;24.77;100.00
12879;BME280;20617;49.476;10.986;2023-08-20T03:57:59;98674.31;;;24.75;100.00
12879;BME280;20617;49.476;10.986;2023-08-20T04:00:08;98681.19;;;24.77;100.00
12879;BME280;20617;49.476;10.986;2023-08-20T04:02:19;98678.53;;;24.77;100.00
12879;BME280;20617;49.476;10.986;2023-08-20T04:04:24;98669.81;;;24.75;100.00
12879;BME280;20617;49.476;10.986;2023-08-20T04:06:30;98680.47;;;24.75;100.00
12879;BME280;20617;49.476;10.986;2023-08-20T04:08:36;98671.94;;;24.72;100.00
12879;BME280;20617;49.476;10.986;2023-08-20T04:10:43;98680.81;;;24.62;100.00
12879;BME280;20617;49.476;10.986;2023-08-20T04:12:49;98679.41;;;24.58;100.00
12879;BME280;20617;49.476;10.986;2023-08-20T04:14:56;98677.31;;;24.62;100.00
12879;BME280;20617;49.476;10.986;2023-08-20T04:17:04;98679.13;;;24.61;100.00
12879;BME280;20617;49.476;10.986;2023-08-20T04:19:13;98688.66;;;24.64;100.00
12879;BME280;20617;49.476;10.986;2023-08-20T04:21:18;98683.34;;;24.64;100.00
12879;BME280;20617;49.476;10.986;2023-08-20T04:23:24;98685.28;;;24.62;100.00
12879;BME280;20617;49.476;10.986;2023-08-20T04:25:30;98689.78;;;24.61;100.00
12879;BME280;20617;49.476;10.986;2023-08-20T04:27:35;98684.16;;;24.65;100.00
12879;BME280;20617;49.476;10.986;2023-08-20T04:29:41;98686.53;;;24.68;100.00
12879;BME280;20617;49.476;10.986;2023-08-20T04:31:45;98686.00;;;24.64;100.00
12879;BME280;20617;49.476;10.986;2023-08-20T04:33:54;98687.50;;;24.67;100.00
12879;BME280;20617;49.476;10.986;2023-08-20T04:36:10;98685.84;;;24.66;100.00
12879;BME280;20617;49.476;10.986;2023-08-20T04:38:16;98691.31;;;24.64;100.00
12879;BME280;20617;49.476;10.986;2023-08-20T04:40:21;98686.97;;;24.63;100.00
12879;BME280;20617;49.476;10.986;2023-08-20T04:42:26;98692.00;;;24.66;100.00
12879;BME280;20617;49.476;10.986;2023-08-20T04:44:32;98688.50;;;24.66;100.00
12879;BME280;20617;49.476;10.986;2023-08-20T04:46:38;98689.22;;;24.68;100.00
12879;BME280;20617;49.476;10.986;2023-08-20T04:48:46;98688.09;;;24.70;100.00
12879;BME280;20617;49.476;10.986;2023-08-20T04:50:53;98696.91;;;24.71;100.00
12879;BME280;20617;49.476;10.986;2023-08-20T04:52:59;98692.56;;;24.70;100.00
12879;BME280;20617;49.476;10.986;2023-08-20T04:55:12;98693.66;;;24.77;100.00
12879;BME280;20617;49.476;10.986;2023-08-20T04:57:18;98687.47;;;24.86;100.00
12879;BME280;20617;49.476;10.986;2023-08-20T04:59:23;98684.22;;;24.92;100.00
12879;BME280;20617;49.476;10.986;2023-08-20T05:01:38;98686.59;;;24.95;100.00
12879;BME280;20617;49.476;10.986;2023-08-20T05:03:44;98688.28;;;24.96;100.00
12879;BME280;20617;49.476;10.986;2023-08-20T05:05:50;98696.00;;;24.99;100.00
12879;BME280;20617;49.476;10.986;2023-08-20T05:08:00;98686.59;;;25.05;100.00
12879;BME280;20617;49.476;10.986;2023-08-20T05:10:06;98691.31;;;25.11;100.00
12879;BME280;20617;49.476;10.986;2023-08-20T05:12:11;98689.31;;;25.13;100.00
12879;BME280;20617;49.476;10.986;2023-08-20T05:14:16;98703.53;;;25.14;100.00
12879;BME280;20617;49.476;10.986;2023-08-20T05:16:21;98697.22;;;25.15;100.00
12879;BME280;20617;49.476;10.986;2023-08-20T05:18:27;98696.38;;;25.14;100.00
12879;BME280;20617;49.476;10.986;2023-08-20T05:20:38;98701.25;;;25.19;100.00
12879;BME280;20617;49.476;10.986;2023-08-20T05:22:45;98703.63;;;25.22;100.00
12879;BME280;20617;49.476;10.986;2023-08-20T05:24:55;98712.31;;;25.24;100.00
12879;BME280;20617;49.476;10.986;2023-08-20T05:27:08;98709.53;;;25.25;100.00
12879;BME280;20617;49.476;10.986;2023-08-20T05:29:13;98705.88;;;25.26;100.00
12879;BME280;20617;49.476;10.986;2023-08-20T05:31:18;98709.91;;;25.30;100.00
12879;BME280;20617;49.476;10.986;2023-08-20T05:33:24;98700.47;;;25.36;100.00
12879;BME280;20617;49.476;10.986;2023-08-20T05:35:30;98705.38;;;25.41;100.00
12879;BME280;20617;49.476;10.986;2023-08-20T05:37:35;98706.63;;;25.46;100.00
12879;BME280;20617;49.476;10.986;2023-08-20T05:39:42;98701.81;;;25.50;100.00
12879;BME280;20617;49.476;10.986;2023-08-20T05:41:51;98706.56;;;25.56;100.00
12879;BME280;20617;49.476;10.986;2023-08-20T05:44:00;98697.72;;;25.56;100.00
12879;BME280;20617;49.476;10.986;2023-08-20T05:46:05;98697.19;;;25.52;100.00
12879;BME280;20617;49.476;10.986;2023-08-20T05:48:10;98699.31;;;25.48;100.00
12879;BME280;20617;49.476;10.986;2023-08-20T05:50:15;98699.63;;;25.45;100.00
12879;BME280;20617;49.476;10.986;2023-08-20T05:52:18;98701.41;;;25.45;100.00
12879;BME280;20617;49.476;10.986;2023-08-20T05:54:23;98698.47;;;25.48;100.00
12879;BME280;20617;49.476;10.986;2023-08-20T05:56:30;98699.31;;;25.48;100.00
12879;BME280;20617;49.476;10.986;2023-08-20T05:58:37;98700.28;;;25.47;100.00
12879;BME280;20617;49.476;10.986;2023-08-20T06:00:45;98707.44;;;25.47;100.00
12879;BME280;20617;49.476;10.986;2023-08-20T06:02:52;98700.75;;;25.43;100.00
12879;BME280;20617;49.476;10.986;2023-08-20T06:04:57;98701.13;;;25.48;100.00
12879;BME280;20617;49.476;10.986;2023-08-20T06:07:02;98688.78;;;25.47;100.00
12879;BME280;20617;49.476;10.986;2023-08-20T06:09:08;98689.03;;;25.53;100.00
12879;BME280;20617;49.476;10.986;2023-08-20T06:11:13;98681.72;;;25.56;100.00
12879;BME280;20617;49.476;10.986;2023-08-20T06:13:18;98685.53;;;25.53;100.00
12879;BME280;20617;49.476;10.986;2023-08-20T06:15:26;98682.44;;;25.58;100.00
12879;BME280;20617;49.476;10.986;2023-08-20T06:17:31;98678.06;;;25.57;100.00
12879;BME280;20617;49.476;10.986;2023-08-20T06:19:39;98678.22;;;25.55;100.00
12879;BME280;20617;49.476;10.986;2023-08-20T06:21:44;98678.63;;;25.60;100.00
12879;BME280;20617;49.476;10.986;2023-08-20T06:23:49;98673.97;;;25.62;100.00
12879;BME280;20617;49.476;10.986;2023-08-20T06:25:53;98671.59;;;25.59;100.00
12879;BME280;20617;49.476;10.986;2023-08-20T06:27:58;98675.97;;;25.60;100.00
12879;BME280;20617;49.476;10.986;2023-08-20T06:30:05;98672.16;;;25.63;100.00
12879;BME280;20617;49.476;10.986;2023-08-20T06:32:13;98673.22;;;25.70;100.00
12879;BME280;20617;49.476;10.986;2023-08-20T06:34:18;98669.66;;;25.79;100.00
12879;BME280;20617;49.476;10.986;2023-08-20T06:36:23;98675.94;;;25.88;100.00
12879;BME280;20617;49.476;10.986;2023-08-20T06:38:28;98668.41;;;26.01;100.00
12879;BME280;20617;49.476;10.986;2023-08-20T06:40:33;98666.03;;;26.16;100.00
12879;BME280;20617;49.476;10.986;2023-08-20T06:42:38;98666.78;;;26.26;100.00
12879;BME280;20617;49.476;10.986;2023-08-20T06:44:42;98676.94;;;26.23;100.00
12879;BME280;20617;49.476;10.986;2023-08-20T06:46:47;98671.28;;;26.26;100.00
12879;BME280;20617;49.476;10.986;2023-08-20T06:48:55;98667.78;;;26.25;100.00
12879;BME280;20617;49.476;10.986;2023-08-20T06:51:08;98670.97;;;26.29;100.00
12879;BME280;20617;49.476;10.986;2023-08-20T06:53:14;98673.19;;;26.33;100.00
12879;BME280;20617;49.476;10.986;2023-08-20T06:55:20;98669.06;;;26.39;100.00
12879;BME280;20617;49.476;10.986;2023-08-20T06:57:25;98668.59;;;26.43;100.00
12879;BME280;20617;49.476;10.986;2023-08-20T06:59:30;98670.66;;;26.50;100.00
12879;BME280;20617;49.476;10.986;2023-08-20T07:01:36;98674.22;;;26.58;100.00
12879;BME280;20617;49.476;10.986;2023-08-20T07:03:42;98674.47;;;26.65;100.00
12879;BME280;20617;49.476;10.986;2023-08-20T07:05:51;98675.34;;;26.74;100.00
12879;BME280;20617;49.476;10.986;2023-08-20T07:07:56;98679.88;;;26.81;100.00
12879;BME280;20617;49.476;10.986;2023-08-20T07:10:01;98680.63;;;26.92;100.00
12879;BME280;20617;49.476;10.986;2023-08-20T07:12:06;98670.81;;;27.00;100.00
12879;BME280;20617;49.476;10.986;2023-08-20T07:14:11;98671.53;;;27.10;100.00
12879;BME280;20617;49.476;10.986;2023-08-20T07:16:16;98673.94;;;27.22;100.00
12879;BME280;20617;49.476;10.986;2023-08-20T07:18:21;98668.13;;;27.26;100.00
12879;BME280;20617;49.476;10.986;2023-08-20T07:20:28;98670.50;;;27.29;100.00
12879;BME280;20617;49.476;10.986;2023-08-20T07:22:37;98673.31;;;27.28;100.00
12879;BME280;20617;49.476;10.986;2023-08-20T07:24:42;98671.47;;;27.28;100.00
12879;BME280;20617;49.476;10.986;2023-08-20T07:26:47;98674.81;;;27.30;100.00
12879;BME280;20617;49.476;10.986;2023-08-20T07:28:53;98673.34;;;27.36;100.00
12879;BME280;20617;49.476;10.986;2023-08-20T07:30:58;98669.88;;;27.44;100.00
12879;BME280;20617;49.476;10.986;2023-08-20T07:33:07;98671.25;;;27.56;100.00
12879;BME280;20617;49.476;10.986;2023-08-20T07:35:14;98672.47;;;27.70;100.00
12879;BME280;20617;49.476;10.986;2023-08-20T07:37:19;98674.88;;;27.81;100.00
12879;BME280;20617;49.476;10.986;2023-08-20T07:39:27;98675.50;;;27.83;100.00
12879;BME280;20617;49.476;10.986;2023-08-20T07:41:33;98668.03;;;27.87;100.00
12879;BME280;20617;49.476;10.986;2023-08-20T07:43:39;98662.31;;;27.98;100.00
12879;BME280;20617;49.476;10.986;2023-08-20T07:45:42;98665.53;;;28.02;100.00
12879;BME280;20617;49.476;10.986;2023-08-20T07:47:47;98670.22;;;28.08;100.00
12879;BME280;20617;49.476;10.986;2023-08-20T07:49:52;98658.50;;;28.17;100.00
12879;BME280;20617;49.476;10.986;2023-08-20T07:51:57;98659.34;;;28.17;100.00
12879;BME280;20617;49.476;10.986;2023-08-20T07:54:03;98655.50;;;28.28;100.00
12879;BME280;20617;49.476;10.986;2023-08-20T07:56:11;98650.28;;;28.35;100.00
12879;BME280;20617;49.476;10.986;2023-08-20T07:58:16;98657.84;;;28.39;100.00
12879;BME280;20617;49.476;10.986;2023-08-20T08:00:21;98656.19;;;28.47;100.00
12879;BME280;20617;49.476;10.986;2023-08-20T08:02:26;98652.13;;;28.59;100.00
12879;BME280;20617;49.476;10.986;2023-08-20T08:04:31;98655.47;;;28.69;100.00
12879;BME280;20617;49.476;10.986;2023-08-20T08:06:36;98663.19;;;28.72;100.00
12879;BME280;20617;49.476;10.986;2023-08-20T08:08:42;98655.63;;;28.76;100.00
12879;BME280;20617;49.476;10.986;2023-08-20T08:10:48;98656.13;;;28.79;100.00
12879;BME280;20617;49.476;10.986;2023-08-20T08:12:56;98656.47;;;28.76;100.00
12879;BME280;20617;49.476;10.986;2023-08-20T08:15:02;98658.78;;;28.79;100.00
12879;BME280;20617;49.476;10.986;2023-08-20T08:17:11;98659.63;;;28.88;100.00
12879;BME280;20617;49.476;10.986;2023-08-20T08:19:16;98661.63;;;29.02;100.00
12879;BME280;20617;49.476;10.986;2023-08-20T08:21:22;98663.78;;;29.15;100.00
12879;BME280;20617;49.476;10.986;2023-08-20T08:23:27;98657.34;;;29.24;100.00
12879;BME280;20617;49.476;10.986;2023-08-20T08:25:35;98660.00;;;29.32;100.00
12879;BME280;20617;49.476;10.986;2023-08-20T08:27:40;98663.34;;;29.34;100.00
12879;BME280;20617;49.476;10.986;2023-08-20T08:30:05;98669.16;;;29.46;100.00
12879;BME280;20617;49.476;10.986;2023-08-20T08:32:12;98669.31;;;29.53;100.00
12879;BME280;20617;49.476;10.986;2023-08-20T08:34:20;98672.47;;;29.56;100.00
12879;BME280;20617;49.476;10.986;2023-08-20T08:36:25;98671.78;;;29.54;100.00
12879;BME280;20617;49.476;10.986;2023-08-20T08:38:31;98671.44;;;29.66;100.00
12879;BME280;20617;49.476;10.986;2023-08-20T08:40:39;98671.56;;;29.72;100.00
12879;BME280;20617;49.476;10.986;2023-08-20T08:42:48;98667.69;;;29.75;100.00
12879;BME280;20617;49.476;10.986;2023-08-20T08:44:54;98672.38;;;29.73;100.00
12879;BME280;20617;49.476;10.986;2023-08-20T08:47:04;98673.75;;;29.69;100.00
12879;BME280;20617;49.476;10.986;2023-08-20T08:49:10;98671.28;;;29.67;100.00
12879;BME280;20617;49.476;10.986;2023-08-20T08:51:16;98675.72;;;29.75;100.00
12879;BME280;20617;49.476;10.986;2023-08-20T08:53:22;98672.28;;;29.89;100.00
12879;BME280;20617;49.476;10.986;2023-08-20T08:55:29;98661.88;;;29.94;100.00
12879;BME280;20617;49.476;10.986;2023-08-20T08:57:38;98656.66;;;29.93;100.00
12879;BME280;20617;49.476;10.986;2023-08-20T08:59:43;98662.34;;;29.98;100.00
12879;BME280;20617;49.476;10.986;2023-08-20T09:01:49;98657.06;;;30.05;100.00
12879;BME280;20617;49.476;10.986;2023-08-20T09:03:57;98660.66;;;30.20;100.00
12879;BME280;20617;49.476;10.986;2023-08-20T09:06:08;98668.50;;;30.30;100.00
12879;BME280;20617;49.476;10.986;2023-08-20T09:08:19;98666.75;;;30.37;100.00
12879;BME280;20617;49.476;10.986;2023-08-20T09:10:26;98664.19;;;30.43;100.00
12879;BME280;20617;49.476;10.986;2023-08-20T09:12:34;98671.16;;;30.53;100.00
12879;BME280;20617;49.476;10.986;2023-08-20T09:14:39;98665.03;;;30.59;100.00
12879;BME280;20617;49.476;10.986;2023-08-20T09:16:46;98659.59;;;30.67;100.00
12879;BME280;20617;49.476;10.986;2023-08-20T09:18:51;98659.03;;;30.72;100.00
12879;BME280;20617;49.476;10.986;2023-08-20T09:20:59;98655.63;;;30.78;100.00
12879;BME280;20617;49.476;10.986;2023-08-20T09:23:11;98657.22;;;30.72;100.00
12879;BME280;20617;49.476;10.986;2023-08-20T09:25:16;98663.94;;;30.68;100.00
12879;BME280;20617;49.476;10.986;2023-08-20T09:27:21;98662.00;;;30.77;100.00
12879;BME280;20617;49.476;10.986;2023-08-20T09:29:27;98654.19;;;30.90;100.00
12879;BME280;20617;49.476;10.986;2023-08-20T09:31:37;98657.34;;;30.94;100.00
12879;BME280;20617;49.476;10.986;2023-08-20T09:33:49;98660.84;;;30.94;100.00
12879;BME280;20617;49.476;10.986;2023-08-20T09:35:55;98660.09;;;31.00;100.00
12879;BME280;20617;49.476;10.986;2023-08-20T09:38:03;98656.59;;;31.00;100.00
12879;BME280;20617;49.476;10.986;2023-08-20T09:40:11;98661.22;;;30.91;100.00
12879;BME280;20617;49.476;10.986;2023-08-20T09:42:17;98651.41;;;30.98;100.00
12879;BME280;20617;49.476;10.986;2023-08-20T09:44:23;98660.97;;;31.16;100.00
12879;BME280;20617;49.476;10.986;2023-08-20T09:46:31;98666.69;;;31.27;100.00
12879;BME280;20617;49.476;10.986;2023-08-20T09:48:41;98662.59;;;31.31;100.00
12879;BME280;20617;49.476;10.986;2023-08-20T09:50:51;98657.81;;;31.42;100.00
12879;BME280;20617;49.476;10.986;2023-08-20T09:53:12;98657.03;;;31.48;100.00
12879;BME280;20617;49.476;10.986;2023-08-20T09:55:21;98660.25;;;31.58;100.00
12879;BME280;20617;49.476;10.986;2023-08-20T09:57:31;98655.16;;;31.63;100.00
12879;BME280;20617;49.476;10.986;2023-08-20T09:59:41;98649.28;;;31.74;100.00
12879;BME280;20617;49.476;10.986;2023-08-20T10:01:46;98649.78;;;31.85;100.00
12879;BME280;20617;49.476;10.986;2023-08-20T10:03:51;98652.91;;;31.88;100.00
12879;BME280;20617;49.476;10.986;2023-08-20T10:05:57;98649.31;;;31.96;100.00
12879;BME280;20617;49.476;10.986;2023-08-20T10:08:05;98648.63;;;32.09;100.00
12879;BME280;20617;49.476;10.986;2023-08-20T10:10:13;98649.44;;;32.09;100.00
12879;BME280;20617;49.476;10.986;2023-08-20T10:12:19;98650.31;;;32.16;100.00
12879;BME280;20617;49.476;10.986;2023-08-20T10:14:24;98649.50;;;32.16;100.00
12879;BME280;20617;49.476;10.986;2023-08-20T10:16:32;98656.16;;;32.20;100.00
12879;BME280;20617;49.476;10.986;2023-08-20T10:18:41;98652.66;;;31.98;100.00
12879;BME280;20617;49.476;10.986;2023-08-20T10:20:49;98651.47;;;32.07;100.00
12879;BME280;20617;49.476;10.986;2023-08-20T10:23:00;98646.97;;;32.14;100.00
12879;BME280;20617;49.476;10.986;2023-08-20T10:25:09;98646.41;;;32.19;100.00
12879;BME280;20617;49.476;10.986;2023-08-20T10:27:24;98639.53;;;32.16;100.00
12879;BME280;20617;49.476;10.986;2023-08-20T10:29:40;98649.94;;;32.19;100.00
12879;BME280;20617;49.476;10.986;2023-08-20T10:31:46;98650.38;;;32.23;100.00
12879;BME280;20617;49.476;10.986;2023-08-20T10:33:54;98645.88;;;32.30;100.00
12879;BME280;20617;49.476;10.986;2023-08-20T10:36:07;98642.59;;;32.35;100.00
12879;BME280;20617;49.476;10.986;2023-08-20T10:38:14;98644.28;;;32.36;100.00
12879;BME280;20617;49.476;10.986;2023-08-20T10:40:51;98651.97;;;32.39;100.00
12879;BME280;20617;49.476;10.986;2023-08-20T10:43:01;98649.91;;;32.62;100.00
12879;BME280;20617;49.476;10.986;2023-08-20T10:45:09;98652.84;;;32.67;100.00
12879;BME280;20617;49.476;10.986;2023-08-20T10:47:16;98650.41;;;32.73;100.00
12879;BME280;20617;49.476;10.986;2023-08-20T10:49:19;98645.84;;;32.73;100.00
12879;BME280;20617;49.476;10.986;2023-08-20T10:51:27;98646.69;;;32.80;100.00
12879;BME280;20617;49.476;10.986;2023-08-20T10:53:32;98640.75;;;32.91;100.00
12879;BME280;20617;49.476;10.986;2023-08-20T10:55:37;98648.03;;;32.98;100.00